Blackfoot, Montana
Current Conditions -  °F | °C
As of 9:56 PM on Wednesday 22 Oct 2014 (Local Time) from KCTB Reporting Station
Clear Clear  
Wind Chill: 50°   Ceiling: Unl
Heat Index: 50°   Visibility: 10mi
Dew Point: 34°   Wind: 5mph
Humidity: 54%   Direction: 220°SW
Pressure: 29.8"   Gusts: NA
Location:  48.5484°N, 112.952°W
Report Text: KCTB 230356Z AUTO 22004KT 10SM CLR 10/01 A2980 RMK AO2 SLP089 T01000011
Loading
Personal Weather Stations






























Interactive Weather Map
Tropical Storm Tracking
New forecast layout! Learn more

10-Day Weather Forecast

Advertisements
Track Severe Weather on mobile